sensor_id;sensor_type;location;lat;lon;timestamp;pressure;altitude;pressure_sealevel;temperature;humidity
46095;BME280;31832;50.746;-2.716;2023-09-19T00:00:00;162344.33;;;13.03;100.00
46095;BME280;31832;50.746;-2.716;2023-09-19T00:02:24;162127.27;;;11.83;100.00
46095;BME280;31832;50.746;-2.716;2023-09-19T00:04:49;162227.40;;;12.38;100.00
46095;BME280;31832;50.746;-2.716;2023-09-19T00:07:14;162131.27;;;12.33;100.00
46095;BME280;31832;50.746;-2.716;2023-09-19T00:09:40;161991.40;;;11.56;100.00
46095;BME280;31832;50.746;-2.716;2023-09-19T00:12:07;162029.32;;;11.53;100.00
46095;BME280;31832;50.746;-2.716;2023-09-19T00:14:31;162095.67;;;12.14;100.00
46095;BME280;31832;50.746;-2.716;2023-09-19T00:16:56;161995.15;;;11.58;100.00
46095;BME280;31832;50.746;-2.716;2023-09-19T00:19:21;162097.09;;;12.14;100.00
46095;BME280;31832;50.746;-2.716;2023-09-19T00:21:47;162102.59;;;11.94;100.00
46095;BME280;31832;50.746;-2.716;2023-09-19T00:24:12;162257.34;;;12.79;100.00
46095;BME280;31832;50.746;-2.716;2023-09-19T00:26:37;162047.16;;;11.87;100.00
46095;BME280;31832;50.746;-2.716;2023-09-19T00:29:03;162159.95;;;12.25;100.00
46095;BME280;31832;50.746;-2.716;2023-09-19T00:31:28;162189.13;;;12.41;100.00
46095;BME280;31832;50.746;-2.716;2023-09-19T00:33:54;162248.92;;;12.50;100.00
46095;BME280;31832;50.746;-2.716;2023-09-19T00:36:19;162260.51;;;12.57;100.00
46095;BME280;31832;50.746;-2.716;2023-09-19T00:38:44;162147.86;;;11.95;100.00
46095;BME280;31832;50.746;-2.716;2023-09-19T00:41:10;162229.24;;;12.39;100.00
46095;BME280;31832;50.746;-2.716;2023-09-19T00:43:35;162075.58;;;12.03;100.00
46095;BME280;31832;50.746;-2.716;2023-09-19T00:46:00;162174.79;;;12.09;100.00
46095;BME280;31832;50.746;-2.716;2023-09-19T00:48:26;162127.02;;;12.31;100.00
46095;BME280;31832;50.746;-2.716;2023-09-19T00:50:51;162024.07;;;11.27;100.00
46095;BME280;31832;50.746;-2.716;2023-09-19T00:53:18;162030.57;;;11.54;100.00
46095;BME280;31832;50.746;-2.716;2023-09-19T00:55:41;162184.71;;;12.15;100.00
46095;BME280;31832;50.746;-2.716;2023-09-19T00:58:06;162253.34;;;12.76;100.00
46095;BME280;31832;50.746;-2.716;2023-09-19T01:00:32;162136.27;;;11.88;100.00
46095;BME280;31832;50.746;-2.716;2023-09-19T01:02:57;162298.12;;;12.77;100.00
46095;BME280;31832;50.746;-2.716;2023-09-19T01:05:22;162215.23;;;12.32;100.00
46095;BME280;31832;50.746;-2.716;2023-09-19T01:07:47;162155.03;;;12.22;100.00
46095;BME280;31832;50.746;-2.716;2023-09-19T01:10:14;162210.14;;;12.29;100.00
46095;BME280;31832;50.746;-2.716;2023-09-19T01:12:48;162133.10;;;11.63;100.00
46095;BME280;31832;50.746;-2.716;2023-09-19T01:15:10;162480.15;;;13.29;100.00
46095;BME280;31832;50.746;-2.716;2023-09-19T01:17:31;162293.95;;;12.27;100.00
46095;BME280;31832;50.746;-2.716;2023-09-19T01:20:07;162582.88;;;13.86;100.00
46095;BME280;31832;50.746;-2.716;2023-09-19T01:22:24;162237.24;;;12.44;100.00
46095;BME280;31832;50.746;-2.716;2023-09-19T01:24:57;162384.29;;;13.01;100.00
46095;BME280;31832;50.746;-2.716;2023-09-19T01:27:21;162400.30;;;13.09;100.00
46095;BME280;31832;50.746;-2.716;2023-09-19T01:29:39;162407.06;;;13.37;100.00
46095;BME280;31832;50.746;-2.716;2023-09-19T01:32:02;162443.27;;;13.09;100.00
46095;BME280;31832;50.746;-2.716;2023-09-19T01:34:24;162416.82;;;12.95;100.00
46095;BME280;31832;50.746;-2.716;2023-09-19T01:36:50;162164.12;;;11.80;100.00
46095;BME280;31832;50.746;-2.716;2023-09-19T01:39:15;162334.15;;;12.73;100.00
46095;BME280;31832;50.746;-2.716;2023-09-19T01:42:02;162265.26;;;12.83;100.00
46095;BME280;31832;50.746;-2.716;2023-09-19T01:44:09;162104.59;;;11.71;100.00
46095;BME280;31832;50.746;-2.716;2023-09-19T01:46:33;162110.01;;;11.74;100.00
46095;BME280;31832;50.746;-2.716;2023-09-19T01:49:04;162192.71;;;12.19;100.00
46095;BME280;31832;50.746;-2.716;2023-09-19T01:51:28;162230.82;;;12.40;100.00
46095;BME280;31832;50.746;-2.716;2023-09-19T01:53:53;162507.69;;;13.45;100.00
46095;BME280;31832;50.746;-2.716;2023-09-19T01:56:19;162595.90;;;13.69;100.00
46095;BME280;31832;50.746;-2.716;2023-09-19T01:58:44;162535.06;;;13.60;100.00
46095;BME280;31832;50.746;-2.716;2023-09-19T02:01:03;162478.90;;;13.05;100.00
46095;BME280;31832;50.746;-2.716;2023-09-19T02:03:28;162421.83;;;13.45;100.00
46095;BME280;31832;50.746;-2.716;2023-09-19T02:05:54;162340.91;;;12.53;100.00
46095;BME280;31832;50.746;-2.716;2023-09-19T02:08:19;162367.69;;;13.15;100.00
46095;BME280;31832;50.746;-2.716;2023-09-19T02:10:44;162414.57;;;12.93;100.00
46095;BME280;31832;50.746;-2.716;2023-09-19T02:13:09;162541.73;;;13.63;100.00
46095;BME280;31832;50.746;-2.716;2023-09-19T02:15:34;162542.82;;;13.40;100.00
46095;BME280;31832;50.746;-2.716;2023-09-19T02:17:59;162411.82;;;13.16;100.00
46095;BME280;31832;50.746;-2.716;2023-09-19T02:20:24;162540.48;;;13.63;100.00
46095;BME280;31832;50.746;-2.716;2023-09-19T02:22:49;162202.22;;;12.24;100.00
46095;BME280;31832;50.746;-2.716;2023-09-19T02:25:15;162322.23;;;12.67;100.00
46095;BME280;31832;50.746;-2.716;2023-09-19T02:27:41;162223.82;;;12.36;100.00
46095;BME280;31832;50.746;-2.716;2023-09-19T02:30:07;162448.19;;;13.12;100.00
46095;BME280;31832;50.746;-2.716;2023-09-19T02:32:31;162561.85;;;13.74;100.00
46095;BME280;31832;50.746;-2.716;2023-09-19T02:34:56;162284.69;;;12.70;100.00
46095;BME280;31832;50.746;-2.716;2023-09-19T02:37:21;162373.94;;;12.95;100.00
46095;BME280;31832;50.746;-2.716;2023-09-19T02:39:47;162219.65;;;12.34;100.00
46095;BME280;31832;50.746;-2.716;2023-09-19T02:42:12;162206.47;;;12.27;100.00
46095;BME280;31832;50.746;-2.716;2023-09-19T02:44:37;162366.85;;;12.91;100.00
46095;BME280;31832;50.746;-2.716;2023-09-19T02:47:03;162436.85;;;13.06;100.00
46095;BME280;31832;50.746;-2.716;2023-09-19T02:49:27;162267.35;;;12.60;100.00
46095;BME280;31832;50.746;-2.716;2023-09-19T02:51:52;162246.58;;;12.73;100.00
46095;BME280;31832;50.746;-2.716;2023-09-19T02:54:18;162369.36;;;12.69;100.00
46095;BME280;31832;50.746;-2.716;2023-09-19T02:56:43;162398.14;;;13.32;100.00
46095;BME280;31832;50.746;-2.716;2023-09-19T02:59:08;162506.18;;;13.44;100.00
46095;BME280;31832;50.746;-2.716;2023-09-19T03:01:33;162322.89;;;12.67;100.00
46095;BME280;31832;50.746;-2.716;2023-09-19T03:03:58;162148.27;;;11.95;100.00
46095;BME280;31832;50.746;-2.716;2023-09-19T03:06:23;162272.10;;;12.39;100.00
46095;BME280;31832;50.746;-2.716;2023-09-19T03:08:48;162204.14;;;12.26;100.00
46095;BME280;31832;50.746;-2.716;2023-09-19T03:11:14;162262.84;;;12.58;100.00
46095;BME280;31832;50.746;-2.716;2023-09-19T03:13:39;162138.35;;;11.89;100.00
46095;BME280;31832;50.746;-2.716;2023-09-19T03:16:04;162224.15;;;12.37;100.00
46095;BME280;31832;50.746;-2.716;2023-09-19T03:18:29;162350.92;;;13.06;100.00
46095;BME280;31832;50.746;-2.716;2023-09-19T03:20:55;162333.99;;;12.49;100.00
46095;BME280;31832;50.746;-2.716;2023-09-19T03:23:19;162285.70;;;12.70;100.00
46095;BME280;31832;50.746;-2.716;2023-09-19T03:25:45;162253.25;;;12.53;100.00
46095;BME280;31832;50.746;-2.716;2023-09-19T03:28:10;162159.45;;;12.01;100.00
46095;BME280;31832;50.746;-2.716;2023-09-19T03:30:35;162181.12;;;12.37;100.00
46095;BME280;31832;50.746;-2.716;2023-09-19T03:33:00;162251.67;;;12.52;100.00
46095;BME280;31832;50.746;-2.716;2023-09-19T03:35:26;162394.72;;;13.06;100.00
46095;BME280;31832;50.746;-2.716;2023-09-19T03:37:51;162358.76;;;13.11;100.00
46095;BME280;31832;50.746;-2.716;2023-09-19T03:40:16;162243.75;;;12.47;100.00
46095;BME280;31832;50.746;-2.716;2023-09-19T03:42:42;162290.37;;;12.73;100.00
46095;BME280;31832;50.746;-2.716;2023-09-19T03:45:07;162340.08;;;13.00;100.00
46095;BME280;31832;50.746;-2.716;2023-09-19T03:47:31;162262.59;;;12.10;100.00
46095;BME280;31832;50.746;-2.716;2023-09-19T03:49:56;162375.95;;;12.96;100.00
46095;BME280;31832;50.746;-2.716;2023-09-19T03:52:21;162350.00;;;13.06;100.00
46095;BME280;31832;50.746;-2.716;2023-09-19T03:54:47;162347.08;;;12.56;100.00
46095;BME280;31832;50.746;-2.716;2023-09-19T03:57:12;162317.81;;;12.88;100.00
46095;BME280;31832;50.746;-2.716;2023-09-19T03:59:37;162307.38;;;12.58;100.00
46095;BME280;31832;50.746;-2.716;2023-09-19T04:02:02;162257.84;;;12.55;100.00
46095;BME280;31832;50.746;-2.716;2023-09-19T04:04:27;162369.69;;;12.69;100.00
46095;BME280;31832;50.746;-2.716;2023-09-19T04:06:52;162197.30;;;12.22;100.00
46095;BME280;31832;50.746;-2.716;2023-09-19T04:09:17;162176.29;;;11.86;100.00
46095;BME280;31832;50.746;-2.716;2023-09-19T04:11:48;162204.97;;;12.50;100.00
46095;BME280;31832;50.746;-2.716;2023-09-19T04:14:13;162264.76;;;12.35;100.00
46095;BME280;31832;50.746;-2.716;2023-09-19T04:16:33;162235.41;;;12.43;100.00
46095;BME280;31832;50.746;-2.716;2023-09-19T04:18:58;162415.40;;;13.18;100.00
46095;BME280;31832;50.746;-2.716;2023-09-19T04:21:23;162275.02;;;12.41;100.00
46095;BME280;31832;50.746;-2.716;2023-09-19T04:23:48;162306.13;;;12.82;100.00
46095;BME280;31832;50.746;-2.716;2023-09-19T04:26:14;162419.66;;;13.20;100.00
46095;BME280;31832;50.746;-2.716;2023-09-19T04:28:39;162274.27;;;12.64;100.00
46095;BME280;31832;50.746;-2.716;2023-09-19T04:31:04;162376.28;;;12.96;100.00
46095;BME280;31832;50.746;-2.716;2023-09-19T04:33:29;162371.86;;;13.18;100.00
46095;BME280;31832;50.746;-2.716;2023-09-19T04:35:55;162450.20;;;13.37;100.00
46095;BME280;31832;50.746;-2.716;2023-09-19T04:38:20;162272.94;;;12.16;100.00
46095;BME280;31832;50.746;-2.716;2023-09-19T04:40:45;162326.40;;;12.93;100.00
46095;BME280;31832;50.746;-2.716;2023-09-19T04:43:11;162275.69;;;12.65;100.00
46095;BME280;31832;50.746;-2.716;2023-09-19T04:45:38;162230.57;;;12.40;100.00
46095;BME280;31832;50.746;-2.716;2023-09-19T04:48:02;162160.86;;;12.50;100.00
46095;BME280;31832;50.746;-2.716;2023-09-19T04:50:27;162229.49;;;12.87;100.00
46095;BME280;31832;50.746;-2.716;2023-09-19T04:52:52;162249.83;;;12.75;100.00
46095;BME280;31832;50.746;-2.716;2023-09-19T04:55:18;162256.34;;;12.54;100.00
46095;BME280;31832;50.746;-2.716;2023-09-19T04:57:44;162377.36;;;12.97;100.00
46095;BME280;31832;50.746;-2.716;2023-09-19T05:00:10;162214.23;;;12.79;100.00
46095;BME280;31832;50.746;-2.716;2023-09-19T05:02:34;162219.31;;;12.34;100.00
46095;BME280;31832;50.746;-2.716;2023-09-19T05:04:59;162200.64;;;12.71;100.00
46095;BME280;31832;50.746;-2.716;2023-09-19T05:07:24;162015.15;;;11.46;100.00
46095;BME280;31832;50.746;-2.716;2023-09-19T05:09:49;162315.55;;;12.87;100.00
46095;BME280;31832;50.746;-2.716;2023-09-19T05:12:14;162424.58;;;12.99;100.00
46095;BME280;31832;50.746;-2.716;2023-09-19T05:14:40;162211.23;;;12.06;100.00
46095;BME280;31832;50.746;-2.716;2023-09-19T05:17:05;162181.54;;;12.61;100.00
46095;BME280;31832;50.746;-2.716;2023-09-19T05:19:30;162282.78;;;12.69;100.00
46095;BME280;31832;50.746;-2.716;2023-09-19T05:21:56;162223.57;;;12.12;100.00
46095;BME280;31832;50.746;-2.716;2023-09-19T05:24:22;162218.06;;;12.81;100.00
46095;BME280;31832;50.746;-2.716;2023-09-19T05:26:47;162342.41;;;13.02;100.00
46095;BME280;31832;50.746;-2.716;2023-09-19T05:29:12;162364.93;;;12.66;100.00
46095;BME280;31832;50.746;-2.716;2023-09-19T05:31:37;162238.08;;;12.68;100.00
46095;BME280;31832;50.746;-2.716;2023-09-19T05:34:03;162153.86;;;12.22;100.00
46095;BME280;31832;50.746;-2.716;2023-09-19T05:36:29;162170.20;;;12.55;100.00
46095;BME280;31832;50.746;-2.716;2023-09-19T05:38:54;162243.00;;;12.71;100.00
46095;BME280;31832;50.746;-2.716;2023-09-19T05:41:19;162248.08;;;12.74;100.00
46095;BME280;31832;50.746;-2.716;2023-09-19T05:43:44;162170.79;;;12.55;100.00
46095;BME280;31832;50.746;-2.716;2023-09-19T05:46:10;162120.68;;;12.27;100.00
46095;BME280;31832;50.746;-2.716;2023-09-19T05:48:35;162038.16;;;11.82;100.00
46095;BME280;31832;50.746;-2.716;2023-09-19T05:51:00;162128.43;;;11.84;100.00
46095;BME280;31832;50.746;-2.716;2023-09-19T05:53:25;162361.26;;;13.12;100.00
46095;BME280;31832;50.746;-2.716;2023-09-19T05:55:51;162284.11;;;12.46;100.00
46095;BME280;31832;50.746;-2.716;2023-09-19T05:58:16;162309.55;;;12.83;100.00
46095;BME280;31832;50.746;-2.716;2023-09-19T06:00:41;162161.03;;;12.02;100.00
46095;BME280;31832;50.746;-2.716;2023-09-19T06:03:07;162305.13;;;13.05;100.00
46095;BME280;31832;50.746;-2.716;2023-09-19T06:05:32;162280.94;;;12.92;100.00
46095;BME280;31832;50.746;-2.716;2023-09-19T06:07:57;162175.71;;;12.58;100.00
46095;BME280;31832;50.746;-2.716;2023-09-19T06:10:23;162114.59;;;12.48;100.00
46095;BME280;31832;50.746;-2.716;2023-09-19T06:12:48;162196.72;;;12.21;100.00
46095;BME280;31832;50.746;-2.716;2023-09-19T06:15:14;162321.31;;;12.90;100.00
46095;BME280;31832;50.746;-2.716;2023-09-19T06:17:38;162329.57;;;12.94;100.00
46095;BME280;31832;50.746;-2.716;2023-09-19T06:20:05;162373.44;;;13.19;100.00
46095;BME280;31832;50.746;-2.716;2023-09-19T06:22:29;162275.69;;;12.89;100.00
46095;BME280;31832;50.746;-2.716;2023-09-19T06:24:55;162289.11;;;12.96;100.00
46095;BME280;31832;50.746;-2.716;2023-09-19T06:27:20;162327.90;;;13.17;100.00
46095;BME280;31832;50.746;-2.716;2023-09-19T06:29:46;162234.57;;;12.90;100.00
46095;BME280;31832;50.746;-2.716;2023-09-19T06:32:11;162319.39;;;12.89;100.00
46095;BME280;31832;50.746;-2.716;2023-09-19T06:34:36;162270.85;;;13.10;100.00
46095;BME280;31832;50.746;-2.716;2023-09-19T06:37:01;162235.41;;;12.91;100.00
46095;BME280;31832;50.746;-2.716;2023-09-19T06:39:27;162211.06;;;12.77;100.00
46095;BME280;31832;50.746;-2.716;2023-09-19T06:41:53;162136.19;;;12.36;100.00
46095;BME280;31832;50.746;-2.716;2023-09-19T06:44:18;162283.28;;;13.17;100.00
46095;BME280;31832;50.746;-2.716;2023-09-19T06:46:43;162275.77;;;13.13;100.00
46095;BME280;31832;50.746;-2.716;2023-09-19T06:49:08;162226.99;;;12.86;100.00
46095;BME280;31832;50.746;-2.716;2023-09-19T06:51:34;162248.25;;;12.98;100.00
46095;BME280;31832;50.746;-2.716;2023-09-19T06:54:01;162150.36;;;12.44;100.00
46095;BME280;31832;50.746;-2.716;2023-09-19T06:56:25;162325.06;;;13.16;100.00
46095;BME280;31832;50.746;-2.716;2023-09-19T06:58:51;162297.29;;;12.77;100.00
46095;BME280;31832;50.746;-2.716;2023-09-19T07:01:16;162168.53;;;12.54;100.00
46095;BME280;31832;50.746;-2.716;2023-09-19T07:03:42;162212.31;;;12.78;100.00
46095;BME280;31832;50.746;-2.716;2023-09-19T07:06:07;162272.77;;;13.11;100.00
46095;BME280;31832;50.746;-2.716;2023-09-19T07:08:32;162220.65;;;12.82;100.00
46095;BME280;31832;50.746;-2.716;2023-09-19T07:10:57;162347.67;;;13.04;100.00
46095;BME280;31832;50.746;-2.716;2023-09-19T07:13:23;162339.24;;;13.24;100.00
46095;BME280;31832;50.746;-2.716;2023-09-19T07:15:48;162446.61;;;13.59;100.00
46095;BME280;31832;50.746;-2.716;2023-09-19T07:18:15;162285.28;;;12.94;100.00
46095;BME280;31832;50.746;-2.716;2023-09-19T07:20:40;162386.04;;;13.26;100.00
46095;BME280;31832;50.746;-2.716;2023-09-19T07:23:05;162314.05;;;13.34;100.00
46095;BME280;31832;50.746;-2.716;2023-09-19T07:25:31;162391.13;;;13.28;100.00
46095;BME280;31832;50.746;-2.716;2023-09-19T07:27:56;162305.30;;;13.05;100.00
46095;BME280;31832;50.746;-2.716;2023-09-19T07:30:21;162178.96;;;12.60;100.00
46095;BME280;31832;50.746;-2.716;2023-09-19T07:32:47;162198.13;;;12.70;100.00
46095;BME280;31832;50.746;-2.716;2023-09-19T07:35:11;162285.70;;;12.94;100.00
46095;BME280;31832;50.746;-2.716;2023-09-19T07:37:37;162346.58;;;13.04;100.00
46095;BME280;31832;50.746;-2.716;2023-09-19T07:40:02;162280.77;;;13.15;100.00
46095;BME280;31832;50.746;-2.716;2023-09-19T07:42:27;162236.99;;;12.91;100.00
46095;BME280;31832;50.746;-2.716;2023-09-19T07:44:53;162242.08;;;12.94;100.00
46095;BME280;31832;50.746;-2.716;2023-09-19T07:47:19;162275.10;;;13.12;100.00
46095;BME280;31832;50.746;-2.716;2023-09-19T07:49:46;162318.97;;;13.36;100.00
46095;BME280;31832;50.746;-2.716;2023-09-19T07:52:10;162262.26;;;13.05;100.00
46095;BME280;31832;50.746;-2.716;2023-09-19T07:54:35;162306.55;;;12.82;100.00
46095;BME280;31832;50.746;-2.716;2023-09-19T07:57:01;162337.74;;;12.99;100.00
46095;BME280;31832;50.746;-2.716;2023-09-19T07:59:26;162360.01;;;13.11;100.00
46095;BME280;31832;50.746;-2.716;2023-09-19T08:01:52;162460.79;;;13.67;100.00
46095;BME280;31832;50.746;-2.716;2023-09-19T08:04:17;162302.71;;;13.28;100.00
46095;BME280;31832;50.746;-2.716;2023-09-19T08:06:43;162338.07;;;12.99;100.00
46095;BME280;31832;50.746;-2.716;2023-09-19T08:09:08;162283.28;;;12.93;100.00
46095;BME280;31832;50.746;-2.716;2023-09-19T08:11:33;162220.23;;;12.82;100.00
46095;BME280;31832;50.746;-2.716;2023-09-19T08:13:59;162274.94;;;13.12;100.00
46095;BME280;31832;50.746;-2.716;2023-09-19T08:16:24;162342.66;;;13.49;100.00
46095;BME280;31832;50.746;-2.716;2023-09-19T08:18:50;162536.64;;;14.08;100.00
46095;BME280;31832;50.746;-2.716;2023-09-19T08:21:15;162409.82;;;13.62;100.00
46095;BME280;31832;50.746;-2.716;2023-09-19T08:23:40;162397.30;;;13.32;100.00
46095;BME280;31832;50.746;-2.716;2023-09-19T08:26:06;162412.90;;;13.64;100.00
46095;BME280;31832;50.746;-2.716;2023-09-19T08:28:31;162451.20;;;13.61;100.00
46095;BME280;31832;50.746;-2.716;2023-09-19T08:31:02;162477.23;;;13.52;100.00
46095;BME280;31832;50.746;-2.716;2023-09-19T08:33:22;162489.25;;;13.82;100.00
46095;BME280;31832;50.746;-2.716;2023-09-19T08:35:47;162406.98;;;13.37;100.00
46095;BME280;31832;50.746;-2.716;2023-09-19T08:38:13;162521.29;;;14.00;100.00
46095;BME280;31832;50.746;-2.716;2023-09-19T08:40:38;162537.23;;;13.85;100.00
46095;BME280;31832;50.746;-2.716;2023-09-19T08:43:04;162574.78;;;13.81;100.00
46095;BME280;31832;50.746;-2.716;2023-09-19T08:45:31;162510.94;;;13.94;100.00
46095;BME280;31832;50.746;-2.716;2023-09-19T08:48:02;162472.81;;;13.49;100.00
46095;BME280;31832;50.746;-2.716;2023-09-19T08:50:25;162295.20;;;13.23;100.00
46095;BME280;31832;50.746;-2.716;2023-09-19T08:52:47;162357.34;;;13.10;100.00
46095;BME280;31832;50.746;-2.716;2023-09-19T08:55:17;162291.20;;;12.97;100.00
46095;BME280;31832;50.746;-2.716;2023-09-19T08:57:36;162472.64;;;13.73;100.00
46095;BME280;31832;50.746;-2.716;2023-09-19T09:00:02;162389.71;;;13.51;100.00
46095;BME280;31832;50.746;-2.716;2023-09-19T09:02:27;162235.57;;;12.91;100.00
46095;BME280;31832;50.746;-2.716;2023-09-19T09:04:51;162313.80;;;12.86;100.00
46095;BME280;31832;50.746;-2.716;2023-09-19T09:07:16;162279.44;;;12.91;100.00
46095;BME280;31832;50.746;-2.716;2023-09-19T09:09:42;162384.54;;;13.49;100.00
46095;BME280;31832;50.746;-2.716;2023-09-19T09:12:08;162410.73;;;13.63;100.00
46095;BME280;31832;50.746;-2.716;2023-09-19T09:14:33;162404.89;;;13.36;100.00
46095;BME280;31832;50.746;-2.716;2023-09-19T09:16:59;162482.24;;;13.78;100.00
46095;BME280;31832;50.746;-2.716;2023-09-19T09:19:24;162549.83;;;14.16;100.00
46095;BME280;31832;50.746;-2.716;2023-09-19T09:21:49;162618.94;;;14.30;100.00
46095;BME280;31832;50.746;-2.716;2023-09-19T09:24:27;162631.71;;;14.60;100.00
46095;BME280;31832;50.746;-2.716;2023-09-19T09:26:42;162593.56;;;14.16;100.00
46095;BME280;31832;50.746;-2.716;2023-09-19T09:29:04;162475.98;;;13.99;100.00
46095;BME280;31832;50.746;-2.716;2023-09-19T09:31:30;162369.36;;;13.64;100.00
46095;BME280;31832;50.746;-2.716;2023-09-19T09:33:56;162419.83;;;13.44;100.00
46095;BME280;31832;50.746;-2.716;2023-09-19T09:36:34;162381.28;;;13.71;100.00
46095;BME280;31832;50.746;-2.716;2023-09-19T09:38:47;162368.94;;;13.40;100.00
46095;BME280;31832;50.746;-2.716;2023-09-19T09:41:12;162327.90;;;12.94;100.00
46095;BME280;31832;50.746;-2.716;2023-09-19T09:43:39;162432.51;;;13.99;100.00
46095;BME280;31832;50.746;-2.716;2023-09-19T09:46:10;162313.80;;;12.86;100.00
46095;BME280;31832;50.746;-2.716;2023-09-19T09:48:28;162302.96;;;13.28;100.00
46095;BME280;31832;50.746;-2.716;2023-09-19T09:50:53;162430.34;;;13.98;100.00
46095;BME280;31832;50.746;-2.716;2023-09-19T09:53:21;162298.79;;;13.25;100.00
46095;BME280;31832;50.746;-2.716;2023-09-19T09:55:58;162361.43;;;13.60;100.00
46095;BME280;31832;50.746;-2.716;2023-09-19T09:58:17;162276.94;;;13.13;100.00
46095;BME280;31832;50.746;-2.716;2023-09-19T10:03:01;162343.08;;;13.50;100.00
46095;BME280;31832;50.746;-2.716;2023-09-19T10:05:26;162392.71;;;13.29;100.00
46095;BME280;31832;50.746;-2.716;2023-09-19T10:07:52;162411.57;;;13.63;100.00
46095;BME280;31832;50.746;-2.716;2023-09-19T10:10:29;162388.63;;;13.51;100.00
46095;BME280;31832;50.746;-2.716;2023-09-19T10:12:45;162440.93;;;13.56;100.00
46095;BME280;31832;50.746;-2.716;2023-09-19T10:15:11;162469.22;;;13.95;100.00
46095;BME280;31832;50.746;-2.716;2023-09-19T10:17:34;162419.41;;;13.68;100.00
46095;BME280;31832;50.746;-2.716;2023-09-19T10:19:59;162463.21;;;13.68;100.00
46095;BME280;31832;50.746;-2.716;2023-09-19T10:22:26;162480.98;;;13.78;100.00
46095;BME280;31832;50.746;-2.716;2023-09-19T10:24:51;162389.04;;;13.27;100.00
46095;BME280;31832;50.746;-2.716;2023-09-19T10:27:16;162506.27;;;14.15;100.00
46095;BME280;31832;50.746;-2.716;2023-09-19T10:29:41;162352.76;;;13.31;100.00
46095;BME280;31832;50.746;-2.716;2023-09-19T10:32:06;162421.16;;;13.93;100.00
46095;BME280;31832;50.746;-2.716;2023-09-19T10:34:35;162411.07;;;13.39;100.00
46095;BME280;31832;50.746;-2.716;2023-09-19T10:36:56;162376.03;;;13.68;100.00
46095;BME280;31832;50.746;-2.716;2023-09-19T10:39:22;162423.83;;;13.70;100.00
46095;BME280;31832;50.746;-2.716;2023-09-19T10:41:50;162472.39;;;13.73;100.00
46095;BME280;31832;50.746;-2.716;2023-09-19T10:44:13;162416.41;;;13.66;100.00
46095;BME280;31832;50.746;-2.716;2023-09-19T10:46:37;162443.52;;;13.81;100.00
46095;BME280;31832;50.746;-2.716;2023-09-19T10:49:03;162456.95;;;13.64;100.00
46095;BME280;31832;50.746;-2.716;2023-09-19T10:51:31;162523.54;;;14.01;100.00
46095;BME280;31832;50.746;-2.716;2023-09-19T10:54:01;162580.46;;;13.85;100.00
46095;BME280;31832;50.746;-2.716;2023-09-19T10:56:23;162537.73;;;14.09;100.00
46095;BME280;31832;50.746;-2.716;2023-09-19T10:58:44;162484.57;;;13.56;100.00
46095;BME280;31832;50.746;-2.716;2023-09-19T11:01:10;162554.92;;;14.18;100.00
46095;BME280;31832;50.746;-2.716;2023-09-19T11:03:35;162585.47;;;13.87;100.00
46095;BME280;31832;50.746;-2.716;2023-09-19T11:06:04;162651.58;;;14.24;100.00
46095;BME280;31832;50.746;-2.716;2023-09-19T11:08:26;162543.90;;;14.12;100.00
46095;BME280;31832;50.746;-2.716;2023-09-19T11:10:56;162595.65;;;14.17;100.00
46095;BME280;31832;50.746;-2.716;2023-09-19T11:13:26;162565.69;;;14.24;100.00
46095;BME280;31832;50.746;-2.716;2023-09-19T11:20:32;162533.97;;;13.83;100.00
46095;BME280;31832;50.746;-2.716;2023-09-19T11:25:41;162529.13;;;14.04;100.00
46095;BME280;31832;50.746;-2.716;2023-09-19T11:30:26;162529.72;;;14.04;100.00
46095;BME280;31832;50.746;-2.716;2023-09-19T11:35:07;162531.39;;;13.81;100.00
46095;BME280;31832;50.746;-2.716;2023-09-19T11:40:06;162673.20;;;14.35;100.00
46095;BME280;31832;50.746;-2.716;2023-09-19T11:44:45;162527.13;;;13.79;100.00
46095;BME280;31832;50.746;-2.716;2023-09-19T11:47:11;162651.24;;;14.23;100.00
46095;BME280;31832;50.746;-2.716;2023-09-19T11:49:40;162646.82;;;14.21;100.00
46095;BME280;31832;50.746;-2.716;2023-09-19T11:52:03;162626.70;;;14.34;100.00
46095;BME280;31832;50.746;-2.716;2023-09-19T11:54:27;162675.70;;;14.37;100.00
46095;BME280;31832;50.746;-2.716;2023-09-19T11:56:52;162663.26;;;14.30;100.00
46095;BME280;31832;50.746;-2.716;2023-09-19T11:59:20;162602.41;;;13.97;100.00
46095;BME280;31832;50.746;-2.716;2023-09-19T12:01:50;162707.09;;;14.54;100.00
46095;BME280;31832;50.746;-2.716;2023-09-19T12:04:08;162608.42;;;14.24;100.00
46095;BME280;31832;50.746;-2.716;2023-09-19T12:06:34;162688.39;;;14.44;100.00
46095;BME280;31832;50.746;-2.716;2023-09-19T12:08:59;162682.13;;;14.64;100.00
46095;BME280;31832;50.746;-2.716;2023-09-19T12:11:27;162712.43;;;14.57;100.00
46095;BME280;31832;50.746;-2.716;2023-09-19T12:13:50;162726.46;;;14.65;100.00
46095;BME280;31832;50.746;-2.716;2023-09-19T12:16:15;162618.85;;;14.06;100.00
46095;BME280;31832;50.746;-2.716;2023-09-19T12:18:40;162690.98;;;14.69;100.00
46095;BME280;31832;50.746;-2.716;2023-09-19T12:21:05;162657.75;;;14.27;100.00
46095;BME280;31832;50.746;-2.716;2023-09-19T12:23:30;162588.72;;;13.89;100.00
46095;BME280;31832;50.746;-2.716;2023-09-19T12:25:55;162698.07;;;14.49;100.00
46095;BME280;31832;50.746;-2.716;2023-09-19T12:28:20;162549.16;;;14.15;100.00
46095;BME280;31832;50.746;-2.716;2023-09-19T12:30:45;162583.38;;;13.86;100.00
46095;BME280;31832;50.746;-2.716;2023-09-19T12:33:16;162784.16;;;14.72;100.00
46095;BME280;31832;50.746;-2.716;2023-09-19T12:35:37;162721.70;;;14.62;100.00
46095;BME280;31832;50.746;-2.716;2023-09-19T12:38:03;162656.33;;;14.26;100.00